sensor_id;sensor_type;location;lat;lon;timestamp;temperature;humidity
14604;DHT22;7388;51.078;13.740;2023-06-01T00:01:09;20.20;36.40
14604;DHT22;7388;51.078;13.740;2023-06-01T00:03:38;20.20;36.50
14604;DHT22;7388;51.078;13.740;2023-06-01T00:06:05;20.20;36.50
14604;DHT22;7388;51.078;13.740;2023-06-01T00:08:31;20.10;36.40
14604;DHT22;7388;51.078;13.740;2023-06-01T00:10:57;20.20;36.50
14604;DHT22;7388;51.078;13.740;2023-06-01T00:13:24;20.10;36.90
14604;DHT22;7388;51.078;13.740;2023-06-01T00:15:50;20.10;36.70
14604;DHT22;7388;51.078;13.740;2023-06-01T00:18:16;20.00;36.70
14604;DHT22;7388;51.078;13.740;2023-06-01T00:20:42;20.00;37.00
14604;DHT22;7388;51.078;13.740;2023-06-01T00:23:10;19.90;37.30
14604;DHT22;7388;51.078;13.740;2023-06-01T00:25:36;19.90;37.20
14604;DHT22;7388;51.078;13.740;2023-06-01T00:28:01;19.90;37.20
14604;DHT22;7388;51.078;13.740;2023-06-01T00:30:28;19.80;37.30
14604;DHT22;7388;51.078;13.740;2023-06-01T00:32:54;19.80;37.20
14604;DHT22;7388;51.078;13.740;2023-06-01T00:35:19;19.90;37.50
14604;DHT22;7388;51.078;13.740;2023-06-01T00:37:45;19.90;37.50
14604;DHT22;7388;51.078;13.740;2023-06-01T00:40:11;19.80;37.30
14604;DHT22;7388;51.078;13.740;2023-06-01T00:42:37;19.70;37.30
14604;DHT22;7388;51.078;13.740;2023-06-01T00:45:03;19.70;37.20
14604;DHT22;7388;51.078;13.740;2023-06-01T00:47:31;19.70;37.20
14604;DHT22;7388;51.078;13.740;2023-06-01T00:50:02;19.50;37.50
14604;DHT22;7388;51.078;13.740;2023-06-01T00:52:28;19.50;37.60
14604;DHT22;7388;51.078;13.740;2023-06-01T00:54:54;19.40;37.70
14604;DHT22;7388;51.078;13.740;2023-06-01T00:57:21;19.40;37.80
14604;DHT22;7388;51.078;13.740;2023-06-01T00:59:47;19.30;37.50
14604;DHT22;7388;51.078;13.740;2023-06-01T01:02:13;19.30;37.70
14604;DHT22;7388;51.078;13.740;2023-06-01T01:04:40;19.20;37.60
14604;DHT22;7388;51.078;13.740;2023-06-01T01:07:19;19.20;38.10
14604;DHT22;7388;51.078;13.740;2023-06-01T01:14:55;19.10;38.20
14604;DHT22;7388;51.078;13.740;2023-06-01T01:17:45;19.10;38.10
14604;DHT22;7388;51.078;13.740;2023-06-01T01:20:44;19.20;38.40
14604;DHT22;7388;51.078;13.740;2023-06-01T01:28:51;19.10;38.20
14604;DHT22;7388;51.078;13.740;2023-06-01T01:31:23;19.10;38.20
14604;DHT22;7388;51.078;13.740;2023-06-01T01:33:50;19.00;37.80
14604;DHT22;7388;51.078;13.740;2023-06-01T01:36:18;19.00;38.00
14604;DHT22;7388;51.078;13.740;2023-06-01T01:38:44;19.00;38.10
14604;DHT22;7388;51.078;13.740;2023-06-01T01:41:10;19.00;38.10
14604;DHT22;7388;51.078;13.740;2023-06-01T01:43:37;19.00;38.50
14604;DHT22;7388;51.078;13.740;2023-06-01T01:49:14;18.90;38.20
14604;DHT22;7388;51.078;13.740;2023-06-01T01:54:15;18.90;38.40
14604;DHT22;7388;51.078;13.740;2023-06-01T01:56:43;18.90;38.40
14604;DHT22;7388;51.078;13.740;2023-06-01T01:59:10;18.90;38.40
14604;DHT22;7388;51.078;13.740;2023-06-01T02:01:36;18.80;38.30
14604;DHT22;7388;51.078;13.740;2023-06-01T02:04:04;18.80;38.40
14604;DHT22;7388;51.078;13.740;2023-06-01T02:06:32;18.80;38.50
14604;DHT22;7388;51.078;13.740;2023-06-01T02:08:58;18.80;39.10
14604;DHT22;7388;51.078;13.740;2023-06-01T02:11:24;18.70;38.70
14604;DHT22;7388;51.078;13.740;2023-06-01T02:13:50;18.70;38.80
14604;DHT22;7388;51.078;13.740;2023-06-01T02:16:16;18.60;38.80
14604;DHT22;7388;51.078;13.740;2023-06-01T02:18:45;18.60;38.90
14604;DHT22;7388;51.078;13.740;2023-06-01T02:21:14;18.50;38.80
14604;DHT22;7388;51.078;13.740;2023-06-01T02:23:40;18.50;38.80
14604;DHT22;7388;51.078;13.740;2023-06-01T02:26:08;18.50;38.80
14604;DHT22;7388;51.078;13.740;2023-06-01T02:28:37;18.50;39.00
14604;DHT22;7388;51.078;13.740;2023-06-01T02:31:04;18.60;38.80
14604;DHT22;7388;51.078;13.740;2023-06-01T02:33:30;18.60;38.70
14604;DHT22;7388;51.078;13.740;2023-06-01T02:35:55;18.50;38.50
14604;DHT22;7388;51.078;13.740;2023-06-01T02:38:21;18.50;38.80
14604;DHT22;7388;51.078;13.740;2023-06-01T02:40:47;18.50;38.80
14604;DHT22;7388;51.078;13.740;2023-06-01T02:43:13;18.50;38.90
14604;DHT22;7388;51.078;13.740;2023-06-01T02:45:38;18.50;39.00
14604;DHT22;7388;51.078;13.740;2023-06-01T02:48:04;18.50;38.70
14604;DHT22;7388;51.078;13.740;2023-06-01T02:50:30;18.50;39.00
14604;DHT22;7388;51.078;13.740;2023-06-01T02:52:56;18.40;38.80
14604;DHT22;7388;51.078;13.740;2023-06-01T02:55:22;18.40;38.80
14604;DHT22;7388;51.078;13.740;2023-06-01T02:57:47;18.40;39.10
14604;DHT22;7388;51.078;13.740;2023-06-01T03:00:13;18.40;39.40
14604;DHT22;7388;51.078;13.740;2023-06-01T03:02:44;18.40;39.10
14604;DHT22;7388;51.078;13.740;2023-06-01T03:05:11;18.40;39.30
14604;DHT22;7388;51.078;13.740;2023-06-01T03:07:41;18.30;39.30
14604;DHT22;7388;51.078;13.740;2023-06-01T03:10:07;18.40;39.10
14604;DHT22;7388;51.078;13.740;2023-06-01T03:12:34;18.30;39.40
14604;DHT22;7388;51.078;13.740;2023-06-01T03:15:00;18.30;39.50
14604;DHT22;7388;51.078;13.740;2023-06-01T03:17:26;18.30;39.30
14604;DHT22;7388;51.078;13.740;2023-06-01T03:19:51;18.20;39.20
14604;DHT22;7388;51.078;13.740;2023-06-01T03:22:17;18.10;39.60
14604;DHT22;7388;51.078;13.740;2023-06-01T03:24:43;18.10;39.50
14604;DHT22;7388;51.078;13.740;2023-06-01T03:27:09;18.10;39.50
14604;DHT22;7388;51.078;13.740;2023-06-01T03:29:36;18.10;39.50
14604;DHT22;7388;51.078;13.740;2023-06-01T03:32:03;18.00;39.60
14604;DHT22;7388;51.078;13.740;2023-06-01T03:34:29;17.90;40.00
14604;DHT22;7388;51.078;13.740;2023-06-01T03:36:54;17.90;40.20
14604;DHT22;7388;51.078;13.740;2023-06-01T03:39:20;17.80;40.10
14604;DHT22;7388;51.078;13.740;2023-06-01T03:41:46;17.80;40.20
14604;DHT22;7388;51.078;13.740;2023-06-01T03:44:12;17.80;40.40
14604;DHT22;7388;51.078;13.740;2023-06-01T03:46:39;17.90;40.60
14604;DHT22;7388;51.078;13.740;2023-06-01T03:49:05;17.90;40.50
14604;DHT22;7388;51.078;13.740;2023-06-01T03:51:31;17.90;40.80
14604;DHT22;7388;51.078;13.740;2023-06-01T03:53:57;17.90;40.80
14604;DHT22;7388;51.078;13.740;2023-06-01T03:56:23;17.90;40.70
14604;DHT22;7388;51.078;13.740;2023-06-01T03:58:49;18.00;40.80
14604;DHT22;7388;51.078;13.740;2023-06-01T04:01:16;18.00;40.90
14604;DHT22;7388;51.078;13.740;2023-06-01T04:03:45;18.10;40.50
14604;DHT22;7388;51.078;13.740;2023-06-01T04:06:11;18.10;40.80
14604;DHT22;7388;51.078;13.740;2023-06-01T04:08:46;18.20;40.80
14604;DHT22;7388;51.078;13.740;2023-06-01T04:11:17;18.20;40.80
14604;DHT22;7388;51.078;13.740;2023-06-01T04:13:46;18.20;40.60
14604;DHT22;7388;51.078;13.740;2023-06-01T04:16:12;18.30;40.30
14604;DHT22;7388;51.078;13.740;2023-06-01T04:18:38;18.30;40.40
14604;DHT22;7388;51.078;13.740;2023-06-01T04:21:04;18.30;40.40
14604;DHT22;7388;51.078;13.740;2023-06-01T04:23:29;18.40;40.30
14604;DHT22;7388;51.078;13.740;2023-06-01T04:25:56;18.40;40.40
14604;DHT22;7388;51.078;13.740;2023-06-01T04:28:28;18.50;40.70
14604;DHT22;7388;51.078;13.740;2023-06-01T04:30:55;18.50;40.50
14604;DHT22;7388;51.078;13.740;2023-06-01T04:33:21;18.60;39.80
14604;DHT22;7388;51.078;13.740;2023-06-01T04:35:51;18.70;39.80
14604;DHT22;7388;51.078;13.740;2023-06-01T04:38:19;18.70;40.30
14604;DHT22;7388;51.078;13.740;2023-06-01T04:40:45;18.70;40.30
14604;DHT22;7388;51.078;13.740;2023-06-01T04:43:11;18.80;40.00
14604;DHT22;7388;51.078;13.740;2023-06-01T04:45:38;18.90;39.60
14604;DHT22;7388;51.078;13.740;2023-06-01T04:48:05;19.00;39.40
14604;DHT22;7388;51.078;13.740;2023-06-01T04:50:36;19.10;39.40
14604;DHT22;7388;51.078;13.740;2023-06-01T04:53:03;19.10;39.10
14604;DHT22;7388;51.078;13.740;2023-06-01T04:55:29;19.20;39.00
14604;DHT22;7388;51.078;13.740;2023-06-01T04:57:56;19.70;39.20
14604;DHT22;7388;51.078;13.740;2023-06-01T05:00:22;19.40;38.80
14604;DHT22;7388;51.078;13.740;2023-06-01T05:02:48;19.50;39.00
14604;DHT22;7388;51.078;13.740;2023-06-01T05:05:15;19.60;38.70
14604;DHT22;7388;51.078;13.740;2023-06-01T05:07:41;19.60;38.70
14604;DHT22;7388;51.078;13.740;2023-06-01T05:10:09;19.70;38.80
14604;DHT22;7388;51.078;13.740;2023-06-01T05:12:36;19.80;38.50
14604;DHT22;7388;51.078;13.740;2023-06-01T05:15:07;19.90;38.60
14604;DHT22;7388;51.078;13.740;2023-06-01T05:17:33;20.00;38.60
14604;DHT22;7388;51.078;13.740;2023-06-01T05:20:00;20.10;38.30
14604;DHT22;7388;51.078;13.740;2023-06-01T05:22:26;20.20;37.70
14604;DHT22;7388;51.078;13.740;2023-06-01T05:24:51;20.30;37.50
14604;DHT22;7388;51.078;13.740;2023-06-01T05:27:18;20.40;37.30
14604;DHT22;7388;51.078;13.740;2023-06-01T05:29:44;20.40;37.30
14604;DHT22;7388;51.078;13.740;2023-06-01T05:32:09;20.50;37.60
14604;DHT22;7388;51.078;13.740;2023-06-01T05:34:35;20.60;37.20
14604;DHT22;7388;51.078;13.740;2023-06-01T05:37:02;20.70;37.20
14604;DHT22;7388;51.078;13.740;2023-06-01T05:39:28;20.80;37.30
14604;DHT22;7388;51.078;13.740;2023-06-01T05:41:57;20.90;37.40
14604;DHT22;7388;51.078;13.740;2023-06-01T05:44:24;21.10;37.00
14604;DHT22;7388;51.078;13.740;2023-06-01T05:46:50;21.10;37.00
14604;DHT22;7388;51.078;13.740;2023-06-01T05:49:18;21.30;37.50
14604;DHT22;7388;51.078;13.740;2023-06-01T05:51:44;21.50;36.30
14604;DHT22;7388;51.078;13.740;2023-06-01T05:54:12;21.50;35.40
14604;DHT22;7388;51.078;13.740;2023-06-01T05:56:38;21.60;35.40
14604;DHT22;7388;51.078;13.740;2023-06-01T05:59:04;21.60;34.60
14604;DHT22;7388;51.078;13.740;2023-06-01T06:01:29;21.60;34.40
14604;DHT22;7388;51.078;13.740;2023-06-01T06:03:55;21.70;35.00
14604;DHT22;7388;51.078;13.740;2023-06-01T06:06:23;21.70;34.40
14604;DHT22;7388;51.078;13.740;2023-06-01T06:08:49;21.80;34.80
14604;DHT22;7388;51.078;13.740;2023-06-01T06:11:15;21.80;34.90
14604;DHT22;7388;51.078;13.740;2023-06-01T06:13:40;21.80;34.80
14604;DHT22;7388;51.078;13.740;2023-06-01T06:16:06;22.00;35.00
14604;DHT22;7388;51.078;13.740;2023-06-01T06:18:32;22.00;34.30
14604;DHT22;7388;51.078;13.740;2023-06-01T06:20:58;22.10;34.30
14604;DHT22;7388;51.078;13.740;2023-06-01T06:23:24;22.20;34.70
14604;DHT22;7388;51.078;13.740;2023-06-01T06:25:49;22.40;34.30
14604;DHT22;7388;51.078;13.740;2023-06-01T06:28:16;22.50;34.30
14604;DHT22;7388;51.078;13.740;2023-06-01T06:30:41;22.50;34.10
14604;DHT22;7388;51.078;13.740;2023-06-01T06:33:07;22.70;34.00
14604;DHT22;7388;51.078;13.740;2023-06-01T06:35:33;22.80;34.10
14604;DHT22;7388;51.078;13.740;2023-06-01T06:37:58;22.90;34.20
14604;DHT22;7388;51.078;13.740;2023-06-01T06:40:24;23.00;33.70
14604;DHT22;7388;51.078;13.740;2023-06-01T06:42:50;23.10;33.40
14604;DHT22;7388;51.078;13.740;2023-06-01T06:45:16;23.10;33.70
14604;DHT22;7388;51.078;13.740;2023-06-01T06:47:42;23.20;33.80
14604;DHT22;7388;51.078;13.740;2023-06-01T06:50:11;23.20;33.70
14604;DHT22;7388;51.078;13.740;2023-06-01T06:52:38;23.30;33.70
14604;DHT22;7388;51.078;13.740;2023-06-01T06:55:04;23.40;33.40
14604;DHT22;7388;51.078;13.740;2023-06-01T06:57:30;23.40;33.20
14604;DHT22;7388;51.078;13.740;2023-06-01T06:59:56;23.40;33.80
14604;DHT22;7388;51.078;13.740;2023-06-01T07:02:22;23.50;33.00
14604;DHT22;7388;51.078;13.740;2023-06-01T07:04:48;23.60;33.30
14604;DHT22;7388;51.078;13.740;2023-06-01T07:07:14;23.60;33.00
14604;DHT22;7388;51.078;13.740;2023-06-01T07:09:40;23.70;33.50
14604;DHT22;7388;51.078;13.740;2023-06-01T07:12:06;23.80;33.70
14604;DHT22;7388;51.078;13.740;2023-06-01T07:14:33;23.90;33.40
14604;DHT22;7388;51.078;13.740;2023-06-01T07:16:58;24.00;33.70
14604;DHT22;7388;51.078;13.740;2023-06-01T07:19:24;24.10;33.50
14604;DHT22;7388;51.078;13.740;2023-06-01T07:21:50;24.20;33.30
14604;DHT22;7388;51.078;13.740;2023-06-01T07:24:18;24.30;33.30
14604;DHT22;7388;51.078;13.740;2023-06-01T07:26:46;24.30;33.30
14604;DHT22;7388;51.078;13.740;2023-06-01T07:29:12;24.30;33.90
14604;DHT22;7388;51.078;13.740;2023-06-01T07:31:40;24.40;33.50
14604;DHT22;7388;51.078;13.740;2023-06-01T07:34:06;24.60;33.30
14604;DHT22;7388;51.078;13.740;2023-06-01T07:36:31;24.60;32.50
14604;DHT22;7388;51.078;13.740;2023-06-01T07:39:03;24.60;32.90
14604;DHT22;7388;51.078;13.740;2023-06-01T07:41:34;24.50;32.60
14604;DHT22;7388;51.078;13.740;2023-06-01T07:44:00;24.60;32.20
14604;DHT22;7388;51.078;13.740;2023-06-01T07:46:26;24.60;32.20
14604;DHT22;7388;51.078;13.740;2023-06-01T07:48:52;24.60;32.70
14604;DHT22;7388;51.078;13.740;2023-06-01T07:51:18;24.70;32.30
14604;DHT22;7388;51.078;13.740;2023-06-01T07:53:43;24.70;32.00
14604;DHT22;7388;51.078;13.740;2023-06-01T07:56:09;24.70;32.10
14604;DHT22;7388;51.078;13.740;2023-06-01T07:58:36;24.70;32.60
14604;DHT22;7388;51.078;13.740;2023-06-01T08:01:03;24.70;33.10
14604;DHT22;7388;51.078;13.740;2023-06-01T08:03:30;24.80;32.10
14604;DHT22;7388;51.078;13.740;2023-06-01T08:05:59;24.80;32.10
14604;DHT22;7388;51.078;13.740;2023-06-01T08:08:28;24.80;33.20
14604;DHT22;7388;51.078;13.740;2023-06-01T08:10:54;24.90;33.10
14604;DHT22;7388;51.078;13.740;2023-06-01T08:13:20;25.00;33.10
14604;DHT22;7388;51.078;13.740;2023-06-01T08:15:46;25.20;32.60
14604;DHT22;7388;51.078;13.740;2023-06-01T08:18:15;25.20;32.20
14604;DHT22;7388;51.078;13.740;2023-06-01T08:20:40;25.30;33.40
14604;DHT22;7388;51.078;13.740;2023-06-01T08:23:07;25.40;31.80
14604;DHT22;7388;51.078;13.740;2023-06-01T08:25:33;25.40;32.00
14604;DHT22;7388;51.078;13.740;2023-06-01T08:28:00;25.60;31.70
14604;DHT22;7388;51.078;13.740;2023-06-01T08:30:26;25.70;31.30
14604;DHT22;7388;51.078;13.740;2023-06-01T08:32:52;25.80;30.10
14604;DHT22;7388;51.078;13.740;2023-06-01T08:35:18;25.80;30.90
14604;DHT22;7388;51.078;13.740;2023-06-01T08:37:47;25.90;31.40
14604;DHT22;7388;51.078;13.740;2023-06-01T08:40:13;26.10;31.60
14604;DHT22;7388;51.078;13.740;2023-06-01T08:45:12;26.20;30.20
14604;DHT22;7388;51.078;13.740;2023-06-01T08:47:39;26.30;30.90
14604;DHT22;7388;51.078;13.740;2023-06-01T08:50:08;26.40;30.80
14604;DHT22;7388;51.078;13.740;2023-06-01T08:52:34;26.50;30.10
14604;DHT22;7388;51.078;13.740;2023-06-01T08:55:02;26.60;30.30
14604;DHT22;7388;51.078;13.740;2023-06-01T08:57:29;26.70;29.00
14604;DHT22;7388;51.078;13.740;2023-06-01T08:59:55;26.70;28.60
14604;DHT22;7388;51.078;13.740;2023-06-01T09:02:22;26.70;29.80
14604;DHT22;7388;51.078;13.740;2023-06-01T09:04:49;26.70;30.30
14604;DHT22;7388;51.078;13.740;2023-06-01T09:07:16;26.90;30.20
14604;DHT22;7388;51.078;13.740;2023-06-01T09:09:42;27.00;30.20
14604;DHT22;7388;51.078;13.740;2023-06-01T09:15:13;27.20;29.30
14604;DHT22;7388;51.078;13.740;2023-06-01T09:17:45;27.30;29.10
14604;DHT22;7388;51.078;13.740;2023-06-01T09:20:24;27.30;27.90
14604;DHT22;7388;51.078;13.740;2023-06-01T09:22:51;27.30;28.60
14604;DHT22;7388;51.078;13.740;2023-06-01T09:25:24;27.40;28.50
14604;DHT22;7388;51.078;13.740;2023-06-01T09:27:50;27.50;29.80
14604;DHT22;7388;51.078;13.740;2023-06-01T09:30:18;27.70;28.90
14604;DHT22;7388;51.078;13.740;2023-06-01T09:32:45;27.80;29.30
14604;DHT22;7388;51.078;13.740;2023-06-01T09:35:37;28.00;28.80
14604;DHT22;7388;51.078;13.740;2023-06-01T09:38:02;28.10;26.80
14604;DHT22;7388;51.078;13.740;2023-06-01T09:40:32;28.10;27.40
14604;DHT22;7388;51.078;13.740;2023-06-01T09:42:58;28.30;27.60
14604;DHT22;7388;51.078;13.740;2023-06-01T09:45:23;28.40;26.90
14604;DHT22;7388;51.078;13.740;2023-06-01T09:47:53;28.40;26.40
14604;DHT22;7388;51.078;13.740;2023-06-01T09:50:39;28.50;27.20
14604;DHT22;7388;51.078;13.740;2023-06-01T09:53:05;28.60;26.60
14604;DHT22;7388;51.078;13.740;2023-06-01T09:55:31;28.60;25.50
14604;DHT22;7388;51.078;13.740;2023-06-01T09:58:21;28.70;25.90
14604;DHT22;7388;51.078;13.740;2023-06-01T10:00:49;28.70;26.40
14604;DHT22;7388;51.078;13.740;2023-06-01T10:03:16;28.70;25.60
14604;DHT22;7388;51.078;13.740;2023-06-01T10:05:43;28.70;26.90
14604;DHT22;7388;51.078;13.740;2023-06-01T10:08:11;28.80;25.80
14604;DHT22;7388;51.078;13.740;2023-06-01T10:10:39;28.90;25.50
14604;DHT22;7388;51.078;13.740;2023-06-01T10:13:05;29.00;26.00
14604;DHT22;7388;51.078;13.740;2023-06-01T10:15:33;29.00;27.10
14604;DHT22;7388;51.078;13.740;2023-06-01T10:18:00;29.10;26.30
14604;DHT22;7388;51.078;13.740;2023-06-01T10:20:26;29.20;25.30
14604;DHT22;7388;51.078;13.740;2023-06-01T10:22:52;29.20;25.70
14604;DHT22;7388;51.078;13.740;2023-06-01T10:25:21;29.20;26.20
14604;DHT22;7388;51.078;13.740;2023-06-01T10:28:04;29.30;25.60
14604;DHT22;7388;51.078;13.740;2023-06-01T10:30:30;29.30;25.80
14604;DHT22;7388;51.078;13.740;2023-06-01T10:32:56;29.40;26.00
14604;DHT22;7388;51.078;13.740;2023-06-01T10:40:44;29.60;24.50
14604;DHT22;7388;51.078;13.740;2023-06-01T10:46:01;29.80;25.50
14604;DHT22;7388;51.078;13.740;2023-06-01T10:48:53;30.00;26.10
14604;DHT22;7388;51.078;13.740;2023-06-01T10:51:20;30.10;26.10
14604;DHT22;7388;51.078;13.740;2023-06-01T10:53:46;30.20;23.90
14604;DHT22;7388;51.078;13.740;2023-06-01T10:56:24;30.30;25.40
14604;DHT22;7388;51.078;13.740;2023-06-01T11:01:41;30.50;24.20
14604;DHT22;7388;51.078;13.740;2023-06-01T11:04:07;30.50;22.70
14604;DHT22;7388;51.078;13.740;2023-06-01T11:06:35;30.40;23.40
14604;DHT22;7388;51.078;13.740;2023-06-01T11:09:04;30.30;22.80
14604;DHT22;7388;51.078;13.740;2023-06-01T11:14:17;30.20;22.30
14604;DHT22;7388;51.078;13.740;2023-06-01T11:16:43;30.20;22.60
14604;DHT22;7388;51.078;13.740;2023-06-01T11:19:10;30.20;23.40
14604;DHT22;7388;51.078;13.740;2023-06-01T11:21:43;30.30;23.60
14604;DHT22;7388;51.078;13.740;2023-06-01T11:24:15;30.40;22.10
14604;DHT22;7388;51.078;13.740;2023-06-01T11:26:43;30.40;23.10
14604;DHT22;7388;51.078;13.740;2023-06-01T11:29:24;30.50;22.60
14604;DHT22;7388;51.078;13.740;2023-06-01T11:31:55;30.40;22.00
14604;DHT22;7388;51.078;13.740;2023-06-01T11:34:34;30.30;22.00
14604;DHT22;7388;51.078;13.740;2023-06-01T11:37:03;30.30;23.20
14604;DHT22;7388;51.078;13.740;2023-06-01T11:39:29;30.40;23.50
14604;DHT22;7388;51.078;13.740;2023-06-01T11:42:18;30.50;23.80
14604;DHT22;7388;51.078;13.740;2023-06-01T11:44:45;30.70;23.20
14604;DHT22;7388;51.078;13.740;2023-06-01T11:47:20;30.60;24.50
14604;DHT22;7388;51.078;13.740;2023-06-01T11:49:47;30.70;22.70
14604;DHT22;7388;51.078;13.740;2023-06-01T11:52:15;30.70;23.60
14604;DHT22;7388;51.078;13.740;2023-06-01T11:54:41;30.80;23.30
14604;DHT22;7388;51.078;13.740;2023-06-01T11:57:07;31.00;24.60
14604;DHT22;7388;51.078;13.740;2023-06-01T11:59:51;31.10;23.20
14604;DHT22;7388;51.078;13.740;2023-06-01T12:02:25;31.10;21.80
14604;DHT22;7388;51.078;13.740;2023-06-01T12:07:24;30.70;20.40
14604;DHT22;7388;51.078;13.740;2023-06-01T12:09:54;30.70;21.00
14604;DHT22;7388;51.078;13.740;2023-06-01T12:12:24;30.80;20.20
14604;DHT22;7388;51.078;13.740;2023-06-01T12:14:51;30.70;20.20
14604;DHT22;7388;51.078;13.740;2023-06-01T12:17:17;30.70;19.30
14604;DHT22;7388;51.078;13.740;2023-06-01T12:19:45;30.60;19.60
14604;DHT22;7388;51.078;13.740;2023-06-01T12:22:12;30.60;19.70
14604;DHT22;7388;51.078;13.740;2023-06-01T12:24:38;30.80;18.90
14604;DHT22;7388;51.078;13.740;2023-06-01T12:27:22;30.90;19.40
14604;DHT22;7388;51.078;13.740;2023-06-01T12:29:48;31.00;19.30
14604;DHT22;7388;51.078;13.740;2023-06-01T12:32:16;31.00;18.30
14604;DHT22;7388;51.078;13.740;2023-06-01T12:34:44;31.00;19.70
14604;DHT22;7388;51.078;13.740;2023-06-01T12:37:20;31.00;18.90
14604;DHT22;7388;51.078;13.740;2023-06-01T12:39:52;31.00;19.50
14604;DHT22;7388;51.078;13.740;2023-06-01T12:42:19;31.00;17.80
14604;DHT22;7388;51.078;13.740;2023-06-01T12:44:52;30.90;18.00
14604;DHT22;7388;51.078;13.740;2023-06-01T12:47:18;30.90;18.40
14604;DHT22;7388;51.078;13.740;2023-06-01T12:52:30;31.00;19.70
14604;DHT22;7388;51.078;13.740;2023-06-01T12:54:56;31.10;19.60
14604;DHT22;7388;51.078;13.740;2023-06-01T12:57:22;31.20;19.70
14604;DHT22;7388;51.078;13.740;2023-06-01T12:59:48;31.40;20.20
14604;DHT22;7388;51.078;13.740;2023-06-01T13:02:14;31.50;19.70
14604;DHT22;7388;51.078;13.740;2023-06-01T13:04:41;31.50;19.40
14604;DHT22;7388;51.078;13.740;2023-06-01T13:07:07;31.50;19.80
14604;DHT22;7388;51.078;13.740;2023-06-01T13:09:33;31.50;20.20
14604;DHT22;7388;51.078;13.740;2023-06-01T13:11:59;31.50;19.80
14604;DHT22;7388;51.078;13.740;2023-06-01T13:14:25;31.50;20.10
14604;DHT22;7388;51.078;13.740;2023-06-01T13:16:51;31.60;19.90
14604;DHT22;7388;51.078;13.740;2023-06-01T13:19:17;31.60;19.30
14604;DHT22;7388;51.078;13.740;2023-06-01T13:21:42;31.60;19.40
14604;DHT22;7388;51.078;13.740;2023-06-01T13:24:08;31.60;19.90
14604;DHT22;7388;51.078;13.740;2023-06-01T13:26:36;31.60;19.30
14604;DHT22;7388;51.078;13.740;2023-06-01T13:29:02;31.60;20.00
14604;DHT22;7388;51.078;13.740;2023-06-01T13:31:32;31.60;17.60
14604;DHT22;7388;51.078;13.740;2023-06-01T13:33:58;31.50;18.00
14604;DHT22;7388;51.078;13.740;2023-06-01T13:36:24;31.40;19.40
14604;DHT22;7388;51.078;13.740;2023-06-01T13:38:50;31.50;20.20
14604;DHT22;7388;51.078;13.740;2023-06-01T13:41:15;31.60;21.20
14604;DHT22;7388;51.078;13.740;2023-06-01T13:43:41;31.70;19.70
14604;DHT22;7388;51.078;13.740;2023-06-01T13:46:07;31.60;19.70
14604;DHT22;7388;51.078;13.740;2023-06-01T13:48:36;31.50;20.80
14604;DHT22;7388;51.078;13.740;2023-06-01T13:51:03;31.50;20.70
14604;DHT22;7388;51.078;13.740;2023-06-01T13:53:30;31.60;19.50
14604;DHT22;7388;51.078;13.740;2023-06-01T13:55:55;31.60;19.60
14604;DHT22;7388;51.078;13.740;2023-06-01T13:58:22;31.60;20.50
14604;DHT22;7388;51.078;13.740;2023-06-01T14:00:48;31.70;19.40
14604;DHT22;7388;51.078;13.740;2023-06-01T14:03:13;31.70;19.30
14604;DHT22;7388;51.078;13.740;2023-06-01T14:05:39;31.80;19.70
14604;DHT22;7388;51.078;13.740;2023-06-01T14:08:05;31.80;18.20
14604;DHT22;7388;51.078;13.740;2023-06-01T14:10:31;31.80;17.70
14604;DHT22;7388;51.078;13.740;2023-06-01T14:12:59;31.80;18.60
14604;DHT22;7388;51.078;13.740;2023-06-01T14:15:25;31.90;17.70
14604;DHT22;7388;51.078;13.740;2023-06-01T14:17:51;31.90;17.10
14604;DHT22;7388;51.078;13.740;2023-06-01T14:20:17;31.90;18.00
14604;DHT22;7388;51.078;13.740;2023-06-01T14:22:43;31.80;16.10
14604;DHT22;7388;51.078;13.740;2023-06-01T14:25:09;31.80;16.50
14604;DHT22;7388;51.078;13.740;2023-06-01T14:27:35;31.60;17.20
14604;DHT22;7388;51.078;13.740;2023-06-01T14:30:06;31.50;16.40
14604;DHT22;7388;51.078;13.740;2023-06-01T14:32:32;31.30;16.30
14604;DHT22;7388;51.078;13.740;2023-06-01T14:34:58;31.30;17.50
14604;DHT22;7388;51.078;13.740;2023-06-01T14:37:24;31.30;17.20
14604;DHT22;7388;51.078;13.740;2023-06-01T14:39:50;31.30;16.50
14604;DHT22;7388;51.078;13.740;2023-06-01T14:42:16;31.30;16.20
14604;DHT22;7388;51.078;13.740;2023-06-01T14:44:43;31.20;15.00
14604;DHT22;7388;51.078;13.740;2023-06-01T14:47:09;31.00;15.50
14604;DHT22;7388;51.078;13.740;2023-06-01T14:49:37;31.10;16.60
14604;DHT22;7388;51.078;13.740;2023-06-01T14:52:03;31.00;17.30
14604;DHT22;7388;51.078;13.740;2023-06-01T14:54:29;31.00;16.50
14604;DHT22;7388;51.078;13.740;2023-06-01T14:56:55;31.00;17.80
14604;DHT22;7388;51.078;13.740;2023-06-01T14:59:21;31.00;17.00
14604;DHT22;7388;51.078;13.740;2023-06-01T15:01:47;31.20;17.50
14604;DHT22;7388;51.078;13.740;2023-06-01T15:04:13;31.30;16.40
14604;DHT22;7388;51.078;13.740;2023-06-01T15:06:38;31.20;15.60
14604;DHT22;7388;51.078;13.740;2023-06-01T15:09:04;31.20;14.30
14604;DHT22;7388;51.078;13.740;2023-06-01T15:11:30;31.00;14.00
14604;DHT22;7388;51.078;13.740;2023-06-01T15:13:56;30.70;14.60
14604;DHT22;7388;51.078;13.740;2023-06-01T15:16:21;30.70;16.00
14604;DHT22;7388;51.078;13.740;2023-06-01T15:18:48;30.70;15.20
14604;DHT22;7388;51.078;13.740;2023-06-01T15:21:13;30.80;15.50
14604;DHT22;7388;51.078;13.740;2023-06-01T15:23:40;30.70;15.30
14604;DHT22;7388;51.078;13.740;2023-06-01T15:26:06;30.50;15.90
14604;DHT22;7388;51.078;13.740;2023-06-01T15:28:31;30.40;16.90
14604;DHT22;7388;51.078;13.740;2023-06-01T15:30:57;30.50;17.50
14604;DHT22;7388;51.078;13.740;2023-06-01T15:33:23;30.60;17.60
14604;DHT22;7388;51.078;13.740;2023-06-01T15:35:48;30.70;17.90
14604;DHT22;7388;51.078;13.740;2023-06-01T15:38:15;30.70;17.70
14604;DHT22;7388;51.078;13.740;2023-06-01T15:40:41;30.80;18.00
14604;DHT22;7388;51.078;13.740;2023-06-01T15:43:06;30.80;17.20
14604;DHT22;7388;51.078;13.740;2023-06-01T15:45:32;30.70;16.30
14604;DHT22;7388;51.078;13.740;2023-06-01T15:47:58;30.50;17.00
14604;DHT22;7388;51.078;13.740;2023-06-01T15:50:23;30.50;18.10
14604;DHT22;7388;51.078;13.740;2023-06-01T15:52:49;30.50;17.70
14604;DHT22;7388;51.078;13.740;2023-06-01T15:55:15;30.40;17.10
14604;DHT22;7388;51.078;13.740;2023-06-01T15:57:41;30.30;17.10
14604;DHT22;7388;51.078;13.740;2023-06-01T16:00:07;30.20;17.40
14604;DHT22;7388;51.078;13.740;2023-06-01T16:02:33;30.20;18.50
14604;DHT22;7388;51.078;13.740;2023-06-01T16:04:59;30.10;18.60
14604;DHT22;7388;51.078;13.740;2023-06-01T16:07:26;30.20;18.80
14604;DHT22;7388;51.078;13.740;2023-06-01T16:09:52;30.30;19.50
14604;DHT22;7388;51.078;13.740;2023-06-01T16:12:18;30.30;18.70